Time;durP1;ratioP1;P1;durP2;ratioP2;P2;SDS_P1;SDS_P2;PMS_P1;PMS_P2;Temp;Humidity;BMP_temperature;BMP_pressure;BME280_temperature;BME280_humidity;BME280_pressure;Samples;Min_cycle;Max_cycle;Signal;HPM_P1;HPM_P2
2022/01/21 00:00:38;;;;;;;12.75;2.28;;;3.10;99.90;;;;;;5072345;28;20052;-61
2022/01/21 00:03:04;;;;;;;13.20;2.60;;;3.10;99.90;;;;;;5072460;28;20530;-61
2022/01/21 00:05:30;;;;;;;11.73;2.20;;;3.30;99.90;;;;;;5088414;28;20040;-60
2022/01/21 00:07:55;;;;;;;10.05;2.03;;;3.20;99.90;;;;;;5075522;28;20051;-61
2022/01/21 00:10:21;;;;;;;10.80;2.20;;;2.90;99.90;;;;;;5074201;28;20071;-61
2022/01/21 00:12:51;;;;;;;8.00;3.20;;;2.90;99.90;;;;;;5055469;28;20044;-61
2022/01/21 00:15:17;;;;;;;10.98;2.63;;;2.90;99.90;;;;;;5072703;28;20139;-61
2022/01/21 00:17:43;;;;;;;12.75;2.60;;;2.90;99.90;;;;;;5071015;28;20049;-60
2022/01/21 00:31:11;;;;;;;10.60;2.28;;;3.20;99.90;;;;;;5071221;28;20054;-60
2022/01/21 00:33:37;;;;;;;6.90;1.50;;;3.20;99.90;;;;;;5072389;28;20044;-61
2022/01/21 00:36:05;;;;;;;7.85;1.77;;;3.40;99.90;;;;;;5071633;28;20036;-60
2022/01/21 00:38:31;;;;;;;7.22;2.00;;;3.40;99.90;;;;;;5089862;28;20040;-60
2022/01/21 00:41:00;;;;;;;11.45;1.33;;;3.40;99.90;;;;;;5091847;28;20101;-61
2022/01/21 00:43:43;;;;;;;12.65;2.95;;;3.50;99.90;;;;;;5092530;28;20043;-60
2022/01/21 00:46:08;;;;;;;9.63;1.42;;;3.40;99.90;;;;;;5091347;28;20051;-60
2022/01/21 00:48:34;;;;;;;7.85;2.38;;;3.50;99.90;;;;;;5075559;28;20048;-60
2022/01/21 00:51:00;;;;;;;8.18;1.65;;;3.50;99.90;;;;;;5072044;28;20078;-60
2022/01/21 00:53:25;;;;;;;6.45;1.55;;;3.60;99.90;;;;;;5054977;28;20098;-61
2022/01/21 00:55:51;;;;;;;4.88;1.10;;;3.50;99.90;;;;;;5071261;28;20041;-60
2022/01/21 00:58:16;;;;;;;7.45;1.95;;;3.40;99.90;;;;;;5071805;28;20044;-61
2022/01/21 01:00:42;;;;;;;7.82;1.92;;;3.40;99.90;;;;;;5070259;28;20109;-61
2022/01/21 01:03:08;;;;;;;9.23;2.00;;;3.60;99.90;;;;;;5072000;28;20059;-61
2022/01/21 01:05:34;;;;;;;13.50;2.17;;;4.30;99.90;;;;;;5073695;28;20051;-60
2022/01/21 01:08:00;;;;;;;7.40;1.70;;;3.30;99.90;;;;;;5073864;28;20120;-61
2022/01/21 01:11:00;;;;;;;7.85;1.67;;;3.30;99.90;;;;;;5075165;28;20040;-61
2022/01/21 01:21:45;;;;;;;7.38;1.48;;;3.10;99.90;;;;;;5090501;28;20109;-61
2022/01/21 01:29:25;;;;;;;9.57;1.50;;;3.10;99.90;;;;;;5091525;28;20044;-61
2022/01/21 01:31:52;;;;;;;7.03;1.30;;;3.10;99.90;;;;;;5086464;28;20044;-61
2022/01/21 01:34:18;;;;;;;11.43;2.65;;;3.10;99.90;;;;;;5054081;28;20041;-61
2022/01/21 01:36:46;;;;;;;10.90;2.67;;;3.20;99.90;;;;;;5070990;28;20055;-61
2022/01/21 01:41:46;;;;;;;11.80;1.98;;;3.30;99.90;;;;;;5069563;28;20044;-60
2022/01/21 01:49:40;;;;;;;11.88;2.85;;;3.40;99.90;;;;;;5087635;28;20126;-61
2022/01/21 01:52:09;;;;;;;11.95;2.92;;;3.50;99.90;;;;;;5091350;28;20468;-61
2022/01/21 01:54:39;;;;;;;14.18;2.55;;;3.50;99.90;;;;;;5091324;28;20043;-61
2022/01/21 01:57:05;;;;;;;18.00;3.40;;;3.60;99.90;;;;;;5090323;28;20047;-60
2022/01/21 01:59:30;;;;;;;16.38;3.30;;;3.60;99.90;;;;;;5090959;28;20055;-60
2022/01/21 02:01:59;;;;;;;15.60;2.53;;;4.00;99.90;;;;;;5091831;28;20040;-60
2022/01/21 02:04:27;;;;;;;15.80;4.18;;;3.70;99.90;;;;;;5080107;28;20070;-60
2022/01/21 02:06:53;;;;;;;10.32;2.55;;;3.60;99.90;;;;;;5070219;28;20041;-60
2022/01/21 02:09:19;;;;;;;12.60;3.03;;;3.70;99.90;;;;;;5053112;28;20479;-60
2022/01/21 02:11:46;;;;;;;9.30;2.15;;;3.80;99.90;;;;;;5070544;28;20133;-60
2022/01/21 02:14:16;;;;;;;12.52;3.28;;;3.70;99.90;;;;;;5070883;28;20044;-60
2022/01/21 02:22:05;;;;;;;10.73;2.50;;;3.70;99.90;;;;;;5070792;28;20047;-60
2022/01/21 02:24:45;;;;;;;9.23;2.75;;;3.70;99.90;;;;;;5070031;28;20473;-60
2022/01/21 02:27:11;;;;;;;12.73;2.67;;;3.70;99.90;;;;;;5053986;28;20037;-60
2022/01/21 02:29:45;;;;;;;11.18;2.55;;;3.90;99.90;;;;;;5054056;28;20056;-60
2022/01/21 02:32:11;;;;;;;15.90;3.60;;;3.70;99.90;;;;;;5069899;28;20079;-60
2022/01/21 02:34:38;;;;;;;9.10;2.72;;;3.70;99.90;;;;;;5070778;28;20045;-59
2022/01/21 02:37:04;;;;;;;16.00;3.30;;;4.90;99.90;;;;;;5070769;28;20486;-61
2022/01/21 02:39:29;;;;;;;15.05;2.95;;;3.70;99.90;;;;;;5070232;28;20044;-60
2022/01/21 02:41:55;;;;;;;7.75;1.98;;;3.80;99.90;;;;;;5069992;28;20504;-60
2022/01/21 02:44:22;;;;;;;10.32;2.05;;;3.80;99.90;;;;;;5069896;28;20070;-61
2022/01/21 02:46:54;;;;;;;8.30;1.70;;;3.80;99.90;;;;;;5070178;28;20396;-60
2022/01/21 02:49:20;;;;;;;8.18;1.80;;;3.60;99.90;;;;;;5090693;28;20048;-61
2022/01/21 02:51:46;;;;;;;8.60;2.20;;;3.80;99.90;;;;;;5089710;28;20509;-61
2022/01/21 02:54:11;;;;;;;8.82;1.63;;;3.70;99.90;;;;;;5093185;28;20537;-60
2022/01/21 02:56:39;;;;;;;4.85;1.38;;;3.70;99.90;;;;;;5077419;28;20499;-60
2022/01/21 02:59:07;;;;;;;12.15;1.90;;;3.80;99.90;;;;;;5075092;28;20111;-61
2022/01/21 03:01:35;;;;;;;11.55;1.63;;;3.80;99.90;;;;;;5057387;28;20093;-61
2022/01/21 03:04:02;;;;;;;13.93;2.13;;;3.80;99.90;;;;;;5073706;28;20489;-61
2022/01/21 03:06:27;;;;;;;8.38;2.08;;;3.80;99.90;;;;;;5073325;28;20401;-60
2022/01/21 03:08:57;;;;;;;8.30;1.80;;;3.90;99.90;;;;;;5090142;28;20039;-60
2022/01/21 03:11:24;;;;;;;11.85;2.45;;;4.00;99.90;;;;;;5094285;28;20442;-60
2022/01/21 03:13:50;;;;;;;13.07;2.63;;;4.00;99.90;;;;;;5075908;28;20174;-60
2022/01/21 03:16:16;;;;;;;10.98;2.50;;;4.10;99.90;;;;;;5094102;28;20398;-61
2022/01/21 03:18:42;;;;;;;7.88;2.60;;;4.00;99.90;;;;;;5061291;28;20111;-61
2022/01/21 03:21:15;;;;;;;12.32;2.40;;;4.00;99.90;;;;;;5072795;28;20051;-60
2022/01/21 03:23:40;;;;;;;6.90;1.80;;;4.00;99.90;;;;;;5073202;28;20055;-61
2022/01/21 03:26:06;;;;;;;12.63;2.35;;;3.90;99.90;;;;;;5073641;28;20048;-60
2022/01/21 03:28:32;;;;;;;12.07;2.75;;;3.90;99.90;;;;;;5086307;28;20089;-61
2022/01/21 03:31:02;;;;;;;10.05;2.50;;;3.90;99.90;;;;;;5093244;28;20122;-60
2022/01/21 03:33:28;;;;;;;14.63;4.43;;;3.80;99.90;;;;;;5076129;28;20036;-60
2022/01/21 03:35:54;;;;;;;8.52;2.53;;;3.80;99.90;;;;;;5093298;28;20044;-61
2022/01/21 03:38:24;;;;;;;11.90;2.90;;;3.80;99.90;;;;;;5081892;28;20052;-60
2022/01/21 03:40:50;;;;;;;12.75;2.35;;;3.80;99.90;;;;;;5072159;28;20052;-60
2022/01/21 03:43:16;;;;;;;9.40;2.00;;;4.00;99.90;;;;;;5073320;28;20036;-60
2022/01/21 03:45:42;;;;;;;13.15;3.38;;;3.90;99.90;;;;;;5056108;28;20028;-60
2022/01/21 03:48:07;;;;;;;10.85;2.50;;;3.90;99.90;;;;;;5070602;28;20439;-60
2022/01/21 03:50:33;;;;;;;10.23;2.17;;;4.00;99.90;;;;;;4994514;28;20071;-60
2022/01/21 03:53:00;;;;;;;11.02;2.80;;;3.70;99.90;;;;;;4993733;28;20049;-60
2022/01/21 03:55:27;;;;;;;10.10;2.72;;;3.80;99.90;;;;;;4992975;28;20482;-60
2022/01/21 03:57:52;;;;;;;10.43;1.95;;;4.30;99.90;;;;;;5003914;28;20070;-60
2022/01/21 04:00:28;;;;;;;8.38;2.15;;;3.80;99.90;;;;;;5013266;28;20038;-60
2022/01/21 04:02:54;;;;;;;8.55;2.45;;;3.90;99.90;;;;;;5011825;28;20041;-61
2022/01/21 04:05:20;;;;;;;9.45;1.70;;;4.30;99.90;;;;;;5012868;28;20044;-60
2022/01/21 04:07:46;;;;;;;6.85;1.90;;;4.10;99.90;;;;;;5002310;28;20082;-60
2022/01/21 04:10:12;;;;;;;11.55;2.55;;;4.10;99.90;;;;;;4992940;28;20486;-61
2022/01/21 04:12:37;;;;;;;8.50;1.73;;;4.10;99.90;;;;;;4993845;28;20045;-60
2022/01/21 04:15:04;;;;;;;7.82;1.70;;;4.10;99.90;;;;;;4993500;28;20504;-60
2022/01/21 04:17:30;;;;;;;9.30;1.88;;;4.10;99.90;;;;;;5000326;28;20041;-60
2022/01/21 04:19:56;;;;;;;5.80;1.60;;;4.00;99.90;;;;;;5012750;28;20120;-60
2022/01/21 04:22:22;;;;;;;9.25;1.98;;;4.00;99.90;;;;;;5013344;28;20049;-60
2022/01/21 04:24:49;;;;;;;9.23;1.98;;;3.90;99.90;;;;;;4995416;28;20048;-60
2022/01/21 04:27:16;;;;;;;14.15;2.67;;;3.90;99.90;;;;;;4991365;28;20116;-60
2022/01/21 04:29:42;;;;;;;8.82;1.92;;;3.90;99.90;;;;;;4992625;28;20498;-60
2022/01/21 04:32:09;;;;;;;16.77;2.92;;;3.80;99.90;;;;;;4993242;28;20073;-60
2022/01/21 04:34:35;;;;;;;5.80;1.70;;;3.80;99.90;;;;;;4993334;28;20042;-60
2022/01/21 04:37:01;;;;;;;8.02;2.05;;;3.90;99.90;;;;;;4994882;28;20056;-59
2022/01/21 04:39:33;;;;;;;10.38;2.00;;;3.70;99.90;;;;;;5012852;28;20076;-60
2022/01/21 04:47:27;;;;;;;15.50;2.47;;;3.60;99.90;;;;;;5005825;28;20078;-60
2022/01/21 04:49:53;;;;;;;13.85;3.25;;;3.60;99.90;;;;;;4992509;28;20531;-60
2022/01/21 04:52:20;;;;;;;7.30;1.60;;;3.50;99.90;;;;;;4992527;28;20390;-60
2022/01/21 04:54:46;;;;;;;11.55;2.35;;;3.50;99.90;;;;;;4992473;28;20517;-60
2022/01/21 04:57:12;;;;;;;9.20;2.00;;;3.40;99.90;;;;;;4997293;28;20029;-60
2022/01/21 04:59:39;;;;;;;9.65;1.95;;;3.30;99.90;;;;;;5012055;28;20493;-60
2022/01/21 05:02:05;;;;;;;8.32;1.95;;;3.20;99.90;;;;;;4996267;28;20038;-60
2022/01/21 05:04:31;;;;;;;14.57;2.25;;;3.20;99.90;;;;;;5012479;28;20042;-60
2022/01/21 05:06:56;;;;;;;7.25;2.80;;;3.20;99.90;;;;;;5009471;28;20037;-60
2022/01/21 05:09:29;;;;;;;8.77;2.03;;;3.20;99.90;;;;;;5012096;28;20033;-60
2022/01/21 05:11:56;;;;;;;17.65;3.45;;;3.20;99.90;;;;;;5028774;28;20534;-60
2022/01/21 05:14:25;;;;;;;10.60;2.10;;;3.20;99.90;;;;;;5012376;28;20050;-60
2022/01/21 05:16:51;;;;;;;8.43;1.98;;;3.10;99.90;;;;;;5009365;28;20042;-60
2022/01/21 05:19:19;;;;;;;20.70;2.73;;;3.10;99.90;;;;;;4991926;28;20049;-60
2022/01/21 05:21:47;;;;;;;8.20;2.03;;;3.40;99.90;;;;;;4992065;28;20504;-60
2022/01/21 05:24:13;;;;;;;9.48;2.60;;;3.10;99.90;;;;;;4976511;28;20034;-60
2022/01/21 05:26:41;;;;;;;12.88;2.53;;;3.10;99.90;;;;;;4991639;28;20042;-60
2022/01/21 05:29:09;;;;;;;6.10;1.85;;;3.10;99.90;;;;;;5011070;28;20050;-60
2022/01/21 05:31:37;;;;;;;10.02;2.50;;;3.10;99.90;;;;;;5012256;28;20045;-60
2022/01/21 05:34:03;;;;;;;13.35;3.60;;;3.20;99.90;;;;;;5010531;28;20146;-60
2022/01/21 05:36:31;;;;;;;9.98;2.15;;;3.10;99.90;;;;;;5012354;28;20128;-60
2022/01/21 05:38:58;;;;;;;9.55;1.90;;;3.20;99.90;;;;;;4994285;28;20085;-60
2022/01/21 05:41:25;;;;;;;7.15;2.30;;;3.20;99.90;;;;;;4991437;28;20398;-60
2022/01/21 05:43:59;;;;;;;12.50;1.90;;;3.20;99.90;;;;;;4975820;28;20372;-60
2022/01/21 05:49:03;;;;;;;12.63;2.85;;;3.20;99.90;;;;;;5007296;28;20060;-60
2022/01/21 05:51:28;;;;;;;7.57;1.98;;;3.40;99.90;;;;;;5011622;28;20049;-60
2022/01/21 05:53:54;;;;;;;8.65;1.98;;;3.40;99.90;;;;;;4995459;28;20038;-60
2022/01/21 05:56:24;;;;;;;11.60;2.65;;;3.70;99.90;;;;;;5011403;28;20478;-61
2022/01/21 05:58:50;;;;;;;9.00;1.75;;;3.80;99.90;;;;;;4995465;28;20050;-61
2022/01/21 06:01:19;;;;;;;15.90;1.98;;;3.80;99.90;;;;;;4991416;28;20133;-61
2022/01/21 06:03:45;;;;;;;4.93;1.58;;;4.00;99.90;;;;;;4991717;28;20077;-61
2022/01/21 06:06:10;;;;;;;7.95;1.73;;;4.00;99.90;;;;;;4991880;28;20078;-61
2022/01/21 06:08:40;;;;;;;8.63;2.08;;;4.00;99.90;;;;;;5004402;28;20042;-60
2022/01/21 06:11:06;;;;;;;8.80;2.00;;;4.00;99.90;;;;;;5011867;28;20132;-61
2022/01/21 06:13:32;;;;;;;6.05;1.85;;;4.00;99.90;;;;;;5011932;28;20080;-60
2022/01/21 06:15:59;;;;;;;10.10;1.55;;;4.00;99.90;;;;;;5010165;28;20042;-60
2022/01/21 06:18:25;;;;;;;6.82;1.55;;;4.00;99.90;;;;;;4999676;28;20456;-60
2022/01/21 06:20:52;;;;;;;11.65;2.10;;;4.00;99.90;;;;;;4991464;28;20440;-61
2022/01/21 06:23:18;;;;;;;9.57;2.63;;;4.00;99.90;;;;;;4991241;28;20490;-61
2022/01/21 06:25:44;;;;;;;12.23;2.63;;;4.10;99.90;;;;;;4991740;28;20095;-61
2022/01/21 06:28:11;;;;;;;8.43;2.58;;;4.10;99.90;;;;;;4985156;28;20120;-61
2022/01/21 06:30:37;;;;;;;13.52;2.60;;;4.00;99.90;;;;;;4997759;28;20041;-61
2022/01/21 06:33:03;;;;;;;14.60;2.35;;;4.00;99.90;;;;;;5014578;28;20045;-61
2022/01/21 06:35:28;;;;;;;7.57;2.22;;;4.00;99.90;;;;;;4998739;28;20482;-61
2022/01/21 06:37:54;;;;;;;7.72;2.38;;;3.90;99.90;;;;;;5006727;28;20547;-60
2022/01/21 06:40:20;;;;;;;10.13;1.67;;;3.90;99.90;;;;;;4994920;28;20129;-61
2022/01/21 06:42:51;;;;;;;7.00;1.92;;;4.00;99.90;;;;;;4994899;28;20057;-60
2022/01/21 06:45:18;;;;;;;6.88;2.10;;;4.10;99.90;;;;;;4994556;28;20436;-60
2022/01/21 06:47:43;;;;;;;9.77;1.85;;;4.00;99.90;;;;;;4998922;28;20049;-61
2022/01/21 06:50:10;;;;;;;10.63;2.45;;;4.10;99.90;;;;;;4998182;28;20053;-60
2022/01/21 06:52:36;;;;;;;8.90;2.53;;;4.10;99.90;;;;;;5007471;28;20142;-61
2022/01/21 06:55:02;;;;;;;12.10;2.63;;;5.00;99.90;;;;;;4994196;28;20579;-60
2022/01/21 06:57:29;;;;;;;14.75;2.72;;;4.00;99.90;;;;;;5002069;28;20045;-60
2022/01/21 06:59:55;;;;;;;13.98;2.40;;;4.30;99.90;;;;;;5013523;28;20099;-60
2022/01/21 07:02:20;;;;;;;8.40;2.15;;;4.20;99.90;;;;;;5063356;28;20564;-60
2022/01/21 07:04:48;;;;;;;12.52;2.83;;;4.00;99.90;;;;;;5027918;28;20076;-60
2022/01/21 07:07:15;;;;;;;14.00;3.13;;;3.70;99.90;;;;;;4994686;28;20038;-60
2022/01/21 07:09:41;;;;;;;14.27;2.88;;;4.10;99.90;;;;;;4977812;28;20121;-61
2022/01/21 07:12:07;;;;;;;16.20;3.08;;;3.90;99.90;;;;;;4977954;28;20497;-61
2022/01/21 07:14:33;;;;;;;18.58;3.25;;;3.60;99.90;;;;;;4994754;28;20560;-60
2022/01/21 07:16:59;;;;;;;18.92;3.55;;;4.10;99.90;;;;;;5002471;28;20120;-60
2022/01/21 07:19:25;;;;;;;14.43;2.80;;;3.90;99.90;;;;;;5004791;28;20566;-60
2022/01/21 07:21:51;;;;;;;14.00;2.80;;;4.20;99.90;;;;;;4979682;28;20422;-60
2022/01/21 07:24:16;;;;;;;15.73;2.67;;;4.20;99.90;;;;;;4972824;28;20054;-60
2022/01/21 07:26:42;;;;;;;14.00;3.35;;;4.40;99.90;;;;;;4993621;28;20042;-60
2022/01/21 07:29:08;;;;;;;15.05;3.80;;;4.40;99.90;;;;;;4975899;28;20120;-60
2022/01/21 07:31:33;;;;;;;13.93;2.88;;;4.40;99.90;;;;;;4991531;28;20422;-60
2022/01/21 07:34:04;;;;;;;12.35;3.65;;;4.50;99.90;;;;;;4990710;28;20091;-60
2022/01/21 07:36:30;;;;;;;14.75;3.38;;;4.40;99.90;;;;;;4993004;28;20054;-60
2022/01/21 07:38:56;;;;;;;13.38;4.03;;;4.30;99.90;;;;;;4989893;28;20055;-60
2022/01/21 07:41:22;;;;;;;8.52;3.13;;;4.40;99.90;;;;;;4996395;28;20038;-60
2022/01/21 07:43:48;;;;;;;14.18;4.07;;;4.40;99.90;;;;;;5010857;28;20049;-60
2022/01/21 07:46:13;;;;;;;15.00;4.18;;;4.30;99.90;;;;;;5011457;28;20485;-60
2022/01/21 07:48:39;;;;;;;12.93;3.95;;;4.20;99.90;;;;;;5005453;28;20158;-60
2022/01/21 07:51:05;;;;;;;12.95;3.70;;;4.30;99.90;;;;;;5002222;28;20550;-60
2022/01/21 07:53:31;;;;;;;18.67;4.00;;;3.80;99.90;;;;;;4991635;28;20429;-60
2022/01/21 07:55:57;;;;;;;22.08;4.13;;;4.00;99.90;;;;;;4990308;28;20136;-60
2022/01/21 07:58:22;;;;;;;16.85;3.88;;;3.70;99.90;;;;;;4991541;28;20469;-60
2022/01/21 08:00:48;;;;;;;15.40;2.92;;;3.50;99.90;;;;;;4990325;28;20064;-60
2022/01/21 08:03:15;;;;;;;14.05;3.25;;;3.70;99.90;;;;;;4991608;28;20120;-60
2022/01/21 08:05:42;;;;;;;17.08;3.53;;;3.40;99.90;;;;;;4997272;28;20053;-60
2022/01/21 08:08:08;;;;;;;14.90;4.75;;;3.50;99.90;;;;;;5015848;28;20049;-60
2022/01/21 08:10:34;;;;;;;21.13;8.80;;;4.00;99.90;;;;;;5076714;28;20042;-59
2022/01/21 08:13:00;;;;;;;21.92;9.68;;;3.30;99.90;;;;;;5017366;28;20054;-60
2022/01/21 08:15:27;;;;;;;24.88;7.32;;;4.10;99.90;;;;;;4990877;28;20042;-60
2022/01/21 08:17:53;;;;;;;18.08;5.47;;;3.70;99.90;;;;;;4962609;28;20528;-59
2022/01/21 08:20:19;;;;;;;16.98;5.85;;;;;;;;;;4981146;28;20051;-60
2022/01/21 08:22:45;;;;;;;19.65;4.43;;;3.60;99.90;;;;;;4960934;28;20042;-60
2022/01/21 08:25:11;;;;;;;15.38;3.33;;;3.50;99.90;;;;;;4993134;28;20037;-60
2022/01/21 08:27:37;;;;;;;12.57;3.78;;;3.30;99.90;;;;;;4981004;28;20082;-60
2022/01/21 08:30:04;;;;;;;15.73;4.07;;;3.70;99.90;;;;;;4970187;28;20128;-59
2022/01/21 08:32:30;;;;;;;11.10;2.63;;;4.10;99.90;;;;;;4973706;28;20043;-60
2022/01/21 08:34:56;;;;;;;11.80;2.38;;;4.60;99.90;;;;;;4991795;28;20387;-60
2022/01/21 08:37:22;;;;;;;12.35;2.08;;;4.30;99.90;;;;;;4973348;28;20682;-60
2022/01/21 08:39:48;;;;;;;8.73;2.80;;;;;;;;;;4980185;28;20487;-60
2022/01/21 08:42:14;;;;;;;11.57;2.80;;;;;;;;;;5022574;28;20069;-60
2022/01/21 08:44:40;;;;;;;8.48;2.03;;;;;;;;;;5021028;28;20517;-60
2022/01/21 08:47:06;;;;;;;8.40;1.90;;;;;;;;;;5037979;28;20042;-60
2022/01/21 08:49:32;;;;;;;11.25;2.20;;;;;;;;;;5022956;28;20054;-60
2022/01/21 08:51:59;;;;;;;17.55;2.28;;;;;;;;;;5045954;28;20545;-60
2022/01/21 08:54:26;;;;;;;9.15;1.90;;;;;;;;;;4989796;28;20053;-60
2022/01/21 08:56:53;;;;;;;10.85;3.47;;;;;;;;;;5000065;28;20054;-61
2022/01/21 08:59:19;;;;;;;9.80;2.50;;;;;;;;;;4986648;28;20136;-60
2022/01/21 09:01:46;;;;;;;13.55;2.63;;;;;;;;;;4985006;28;20056;-60
2022/01/21 09:04:12;;;;;;;11.70;2.30;;;;;;;;;;4988511;28;20120;-60
2022/01/21 09:06:39;;;;;;;10.60;2.60;;;;;;;;;;4975898;28;20041;-60
2022/01/21 09:09:05;;;;;;;11.18;2.05;;;;;;;;;;4991662;28;20050;-60
2022/01/21 09:11:31;;;;;;;10.32;2.05;;;;;;;;;;4991886;28;20609;-60
2022/01/21 09:13:58;;;;;;;10.60;2.45;;;;;;;;;;4984810;28;20048;-60
2022/01/21 09:16:24;;;;;;;13.30;3.75;;;;;;;;;;4991784;28;20124;-59
2022/01/21 09:18:53;;;;;;;13.00;3.70;;;;;;;;;;5015488;28;20048;-60
2022/01/21 09:21:21;;;;;;;14.45;3.17;;;;;;;;;;4992404;28;20053;-60
2022/01/21 09:23:49;;;;;;;14.13;3.08;;;5.70;99.90;;;;;;4990717;28;20046;-60
2022/01/21 09:26:16;;;;;;;18.05;3.90;;;5.20;99.90;;;;;;4975710;28;20042;-60
2022/01/21 09:28:43;;;;;;;14.32;3.50;;;5.20;99.90;;;;;;4974552;28;20083;-60
2022/01/21 09:31:09;;;;;;;16.02;3.78;;;5.70;99.90;;;;;;4974972;28;20420;-60
2022/01/21 09:33:34;;;;;;;23.90;4.90;;;5.80;99.90;;;;;;5054344;28;20042;-60
2022/01/21 09:36:00;;;;;;;15.27;4.35;;;5.90;99.90;;;;;;4997154;28;20383;-61
2022/01/21 09:38:26;;;;;;;19.83;4.45;;;6.10;99.90;;;;;;4990074;28;20045;-60
2022/01/21 09:40:53;;;;;;;17.15;4.78;;;5.90;99.90;;;;;;4979210;28;20038;-60
2022/01/21 09:43:20;;;;;;;15.40;3.00;;;5.90;99.90;;;;;;4969159;28;20483;-60
2022/01/21 09:45:51;;;;;;;20.42;5.22;;;6.10;99.90;;;;;;4997975;28;20041;-60
2022/01/21 09:48:23;;;;;;;18.98;3.97;;;6.20;99.90;;;;;;5013763;28;20128;-60
2022/01/21 09:50:58;;;;;;;19.05;3.47;;;6.30;99.90;;;;;;5014944;28;20517;-60
2022/01/21 09:53:33;;;;;;;17.67;3.10;;;6.30;99.90;;;;;;4994531;28;20048;-60
2022/01/21 09:56:05;;;;;;;15.65;3.20;;;6.30;99.90;;;;;;5005206;28;20048;-60
2022/01/21 09:58:32;;;;;;;13.90;3.63;;;6.30;99.90;;;;;;5044487;28;20425;-60
2022/01/21 10:01:00;;;;;;;13.25;3.00;;;6.30;99.90;;;;;;5035712;28;20045;-60
2022/01/21 10:03:26;;;;;;;16.58;3.28;;;6.40;99.90;;;;;;5001829;28;20042;-60
2022/01/21 10:05:53;;;;;;;35.90;7.07;;;6.40;99.90;;;;;;5076028;28;20453;-60
2022/01/21 10:08:21;;;;;;;10.70;4.90;;;6.40;99.90;;;;;;5008205;28;20045;-60
2022/01/21 10:10:47;;;;;;;20.95;3.83;;;6.40;99.90;;;;;;5006995;28;20521;-60
2022/01/21 10:13:19;;;;;;;14.85;3.08;;;6.40;99.90;;;;;;4998592;28;20050;-60
2022/01/21 10:15:46;;;;;;;18.70;4.18;;;6.50;99.90;;;;;;5048691;28;20058;-60
2022/01/21 10:18:14;;;;;;;12.75;2.30;;;6.60;99.90;;;;;;5046763;28;20042;-59
2022/01/21 10:21:02;;;;;;;11.32;3.33;;;6.50;99.90;;;;;;5019982;28;20042;-60
2022/01/21 10:23:30;;;;;;;17.70;4.00;;;6.60;99.90;;;;;;5043430;28;20141;-60
2022/01/21 10:26:01;;;;;;;10.20;2.40;;;6.90;99.90;;;;;;5003733;28;20128;-60
2022/01/21 10:28:27;;;;;;;11.18;3.63;;;6.70;99.90;;;;;;4972715;28;20517;-60
2022/01/21 10:31:05;;;;;;;16.20;2.58;;;6.70;99.90;;;;;;5034675;28;20470;-60
2022/01/21 10:33:31;;;;;;;40.63;7.45;;;6.70;99.90;;;;;;5023517;28;20843;-60
2022/01/21 10:36:24;;;;;;;20.83;3.75;;;6.70;99.90;;;;;;5059182;28;20128;-60
2022/01/21 10:38:51;;;;;;;12.20;3.05;;;6.80;99.90;;;;;;4975456;28;20071;-60
2022/01/21 10:41:19;;;;;;;23.05;4.72;;;6.80;99.90;;;;;;5050408;28;20614;-60
2022/01/21 10:44:07;;;;;;;14.55;2.88;;;6.90;99.90;;;;;;4985454;28;20042;-60
2022/01/21 10:46:34;;;;;;;13.15;2.67;;;7.00;99.90;;;;;;4968150;28;20109;-60
2022/01/21 10:49:04;;;;;;;11.63;2.90;;;6.90;99.90;;;;;;4989980;28;20042;-61
2022/01/21 10:51:36;;;;;;;11.45;2.42;;;7.00;99.90;;;;;;4993636;28;20045;-60
2022/01/21 10:54:17;;;;;;;16.75;3.05;;;7.00;99.90;;;;;;5027213;28;20085;-60
2022/01/21 10:57:15;;;;;;;11.75;2.55;;;7.00;99.90;;;;;;5000370;28;20046;-61
2022/01/21 11:00:01;;;;;;;9.68;3.10;;;7.00;99.90;;;;;;4971903;28;20427;-60
2022/01/21 11:02:35;;;;;;;10.35;3.00;;;7.00;99.90;;;;;;5044208;28;20448;-60
2022/01/21 11:05:09;;;;;;;11.38;2.90;;;7.80;99.90;;;;;;4971421;28;20050;-60
2022/01/21 11:07:52;;;;;;;14.45;3.05;;;7.10;99.90;;;;;;4971997;28;20125;-60
2022/01/21 11:10:39;;;;;;;14.10;2.40;;;7.10;99.90;;;;;;4963253;28;20055;-60
2022/01/21 11:13:15;;;;;;;14.70;2.47;;;7.50;99.90;;;;;;4991967;28;20053;-60
2022/01/21 11:15:44;;;;;;;11.27;2.85;;;7.10;99.90;;;;;;5009134;28;20108;-60
2022/01/21 11:18:14;;;;;;;14.00;3.13;;;7.70;99.90;;;;;;5010952;28;20366;-60
2022/01/21 11:20:41;;;;;;;9.85;3.05;;;7.80;99.90;;;;;;5005531;28;20049;-60
2022/01/21 11:23:09;;;;;;;15.45;3.80;;;7.20;99.90;;;;;;4995785;28;20520;-60
2022/01/21 11:25:43;;;;;;;11.60;3.13;;;7.20;99.90;;;;;;4991792;28;20045;-60
2022/01/21 11:28:19;;;;;;;12.20;3.15;;;7.20;99.90;;;;;;4976177;28;20052;-59
2022/01/21 11:30:45;;;;;;;8.10;2.53;;;7.30;99.90;;;;;;4990138;28;20166;-59
2022/01/21 11:33:11;;;;;;;15.50;2.88;;;7.30;99.90;;;;;;4970553;28;20065;-60
2022/01/21 11:35:37;;;;;;;19.20;5.10;;;7.30;99.90;;;;;;4992961;28;20501;-61
2022/01/21 11:38:09;;;;;;;15.32;2.90;;;7.30;99.90;;;;;;5007336;28;20109;-60
2022/01/21 11:40:36;;;;;;;7.55;1.92;;;7.30;99.90;;;;;;4989033;28;20046;-60
2022/01/21 11:43:04;;;;;;;10.45;3.00;;;7.30;99.90;;;;;;5009881;28;20440;-61
2022/01/21 11:45:43;;;;;;;13.57;4.03;;;7.30;99.90;;;;;;5010861;28;20374;-61
2022/01/21 11:50:45;;;;;;;12.38;3.92;;;7.30;99.90;;;;;;5009883;28;20129;-61
2022/01/21 11:53:11;;;;;;;17.23;3.53;;;7.30;99.90;;;;;;5009715;28;20125;-61
2022/01/21 11:55:47;;;;;;;20.23;4.75;;;7.20;99.90;;;;;;5010431;28;20046;-61
2022/01/21 11:58:23;;;;;;;12.60;3.80;;;7.20;99.90;;;;;;5010480;28;20174;-61
2022/01/21 12:00:51;;;;;;;15.20;3.20;;;7.20;99.90;;;;;;5009305;28;20034;-61
2022/01/21 12:03:23;;;;;;;19.40;4.55;;;7.10;99.90;;;;;;5010137;28;20046;-61
2022/01/21 12:05:50;;;;;;;12.82;2.88;;;7.20;99.90;;;;;;5009778;28;20038;-61
2022/01/21 12:08:15;;;;;;;11.48;3.75;;;7.10;99.90;;;;;;5009370;28;20061;-61
2022/01/21 12:10:45;;;;;;;17.20;4.68;;;7.20;99.90;;;;;;5009716;28;20046;-61
2022/01/21 12:13:16;;;;;;;22.10;5.32;;;7.20;99.90;;;;;;5010232;28;20049;-61
2022/01/21 12:15:53;;;;;;;21.50;4.47;;;7.20;99.90;;;;;;5005973;28;20038;-60
2022/01/21 12:19:10;;;;;;;15.68;3.65;;;7.30;99.90;;;;;;4988270;28;20046;-61
2022/01/21 12:21:41;;;;;;;13.13;3.28;;;7.30;99.90;;;;;;5004906;28;20042;-61
2022/01/21 12:24:09;;;;;;;12.77;3.17;;;7.30;99.90;;;;;;5017268;28;20605;-61
2022/01/21 12:26:36;;;;;;;13.18;2.90;;;7.30;99.90;;;;;;5078595;28;20057;-61
2022/01/21 12:29:01;;;;;;;25.23;4.07;;;7.30;99.90;;;;;;5077445;28;20502;-61
2022/01/21 12:31:44;;;;;;;17.85;3.90;;;7.20;99.90;;;;;;5011114;28;20054;-61
2022/01/21 12:34:15;;;;;;;15.98;4.25;;;7.40;99.90;;;;;;5078808;28;20087;-61
2022/01/21 12:36:51;;;;;;;10.10;3.55;;;7.40;99.90;;;;;;5014305;28;20502;-61
2022/01/21 12:39:35;;;;;;;17.00;3.78;;;7.40;99.90;;;;;;4992348;28;20084;-61
2022/01/21 12:42:19;;;;;;;21.85;3.70;;;7.40;99.90;;;;;;4992378;28;20049;-61
2022/01/21 12:44:49;;;;;;;18.92;3.33;;;7.40;99.90;;;;;;4986829;28;20117;-61
2022/01/21 12:47:43;;;;;;;15.77;3.28;;;7.40;99.90;;;;;;4982196;28;20083;-61
2022/01/21 12:50:21;;;;;;;19.05;4.28;;;7.40;99.90;;;;;;4990705;28;20516;-61
2022/01/21 12:52:56;;;;;;;12.23;4.07;;;7.40;99.90;;;;;;4992716;28;20094;-61
2022/01/21 12:58:26;;;;;;;21.27;6.78;;;7.30;99.90;;;;;;4992106;28;20383;-61
2022/01/21 13:00:56;;;;;;;20.40;5.95;;;7.30;99.90;;;;;;5005752;28;20041;-61
2022/01/21 13:03:55;;;;;;;17.40;4.35;;;7.20;99.90;;;;;;5004996;28;20050;-61
2022/01/21 13:07:01;;;;;;;16.73;3.65;;;7.20;99.90;;;;;;5010775;28;20041;-61
2022/01/21 13:09:54;;;;;;;23.83;4.20;;;7.20;99.90;;;;;;5008325;28;20049;-61
2022/01/21 13:12:22;;;;;;;20.35;10.27;;;7.20;99.90;;;;;;5010419;28;20046;-61
2022/01/21 13:14:53;;;;;;;24.60;10.95;;;7.20;99.90;;;;;;5010133;28;20042;-61
2022/01/21 13:17:19;;;;;;;25.13;6.78;;;7.10;99.90;;;;;;5022074;28;20046;-61
2022/01/21 13:19:49;;;;;;;23.75;12.93;;;8.00;99.90;;;;;;4992058;28;20046;-61
2022/01/21 13:22:25;;;;;;;23.83;8.98;;;7.20;99.90;;;;;;4995025;28;20061;-61
2022/01/21 13:25:06;;;;;;;24.42;11.02;;;7.20;99.90;;;;;;5009252;28;20034;-61
2022/01/21 13:27:50;;;;;;;20.30;10.02;;;7.20;99.90;;;;;;5001113;28;20590;-61
2022/01/21 13:30:20;;;;;;;17.90;5.45;;;7.20;99.90;;;;;;4993768;28;20045;-61
2022/01/21 13:32:47;;;;;;;22.70;9.10;;;7.10;99.90;;;;;;5008812;28;20451;-61
2022/01/21 13:35:23;;;;;;;35.75;18.88;;;7.20;99.90;;;;;;5077762;28;20049;-61
2022/01/21 13:38:12;;;;;;;36.67;18.58;;;7.20;99.90;;;;;;5076972;28;20520;-61
2022/01/21 13:40:50;;;;;;;26.73;9.13;;;7.20;99.90;;;;;;5077016;28;20049;-61
2022/01/21 13:43:32;;;;;;;26.77;12.55;;;7.20;99.90;;;;;;5077785;28;20482;-61
2022/01/21 13:46:04;;;;;;;22.30;7.65;;;7.20;99.90;;;;;;5019556;28;20046;-61
2022/01/21 13:48:33;;;;;;;28.80;13.30;;;7.20;99.90;;;;;;4976021;28;20406;-61
2022/01/21 13:51:01;;;;;;;17.83;7.03;;;7.20;99.90;;;;;;5009231;28;20391;-61
2022/01/21 13:53:28;;;;;;;17.17;6.00;;;7.20;99.90;;;;;;5008610;28;20048;-61
2022/01/21 13:55:57;;;;;;;16.98;7.88;;;7.20;99.90;;;;;;5048550;28;20039;-61